Time,TemperatureF,DewpointF,PressureIn,WindDirection,WindDirectionDegrees,WindSpeedMPH,WindSpeedGustMPH,Humidity,HourlyPrecipIn,Conditions,Clouds,dailyrainin,SoftwareType,DateUTC
2013-01-02 00:00:00,34.5,32.4,30.05,ESE,112,0.0,0.0,92,0.00,RA,SCT,0.00,WeatherDisplay:10.37,2013-01-02 00:00:00,
2013-01-02 00:10:00,34.3,32.3,30.05,WNW,292,1.0,2.0,92,0.00,CLR,SCT,0.00,WeatherDisplay:10.37,2013-01-02 00:10:00,
2013-01-02 00:15:00,34.3,32.3,30.06,WNW,284,0.0,0.0,92,0.00,CLR,SCT,0.00,WeatherDisplay:10.37,2013-01-02 00:15:00,
2013-01-02 00:20:00,34.3,32.3,30.06,WNW,286,0.0,0.0,92,0.00,CLR,SCT,0.00,WeatherDisplay:10.37,2013-01-02 00:20:00,
2013-01-02 00:25:00,34.0,31.9,30.06,SSW,211,0.0,0.0,92,0.00,CLR,SCT,0.00,WeatherDisplay:10.37,2013-01-02 00:25:00,
2013-01-02 00:30:00,34.0,31.9,30.06,SE,145,0.0,0.0,92,0.00,CLR,SCT,0.00,WeatherDisplay:10.37,2013-01-02 00:30:00,
2013-01-02 00:40:00,34.3,32.2,30.06,NW,326,1.0,2.0,92,0.00,CLR,SCT,0.00,WeatherDisplay:10.37,2013-01-02 00:40:00,
2013-01-02 00:45:00,34.3,32.5,30.05,WNW,302,0.0,2.0,93,0.00,CLR,SCT,0.00,WeatherDisplay:10.37,2013-01-02 00:45:00,
2013-01-02 00:50:00,34.7,32.9,30.06,WNW,288,2.0,5.0,93,0.00,CLR,SCT,0.00,WeatherDisplay:10.37,2013-01-02 00:50:00,
2013-01-02 01:00:00,35.2,33.4,30.06,NW,311,3.0,5.0,93,0.00,CLR,SCT,0.00,WeatherDisplay:10.37,2013-01-02 01:00:00,
2013-01-02 01:05:00,35.4,33.6,30.06,NW,314,1.0,3.0,93,0.00,CLR,SCT,0.00,WeatherDisplay:10.37,2013-01-02 01:05:00,
2013-01-02 01:11:00,35.4,33.6,30.07,NW,306,1.0,3.0,93,0.00,CLR,SCT,0.00,WeatherDisplay:10.37,2013-01-02 01:11:00,
2013-01-02 01:16:00,35.4,33.9,30.07,WNW,302,1.0,2.0,94,0.00,CLR,SCT,0.00,WeatherDisplay:10.37,2013-01-02 01:16:00,
2013-01-02 01:31:00,35.4,33.9,30.07,WNW,298,1.0,2.0,94,0.00,CLR,SCT,0.00,WeatherDisplay:10.37,2013-01-02 01:31:00,
2013-01-02 01:40:00,35.4,33.8,30.08,WNW,293,0.0,1.0,94,0.00,CLR,SCT,0.00,WeatherDisplay:10.37,2013-01-02 01:40:00,
2013-01-02 01:50:00,35.2,33.7,30.09,East,93,0.0,0.0,94,0.00,CLR,SCT,0.00,WeatherDisplay:10.37,2013-01-02 01:50:00,
2013-01-02 02:00:00,34.9,33.1,30.10,ENE,63,0.0,0.0,93,0.00,CLR,SCT,0.00,WeatherDisplay:10.37,2013-01-02 02:00:00,
2013-01-02 02:10:00,34.9,33.1,30.10,NW,323,0.0,0.0,93,0.00,CLR,SCT,0.00,WeatherDisplay:10.37,2013-01-02 02:10:00,
2013-01-02 02:15:00,34.9,33.1,30.10,NW,310,0.0,0.0,93,0.00,CLR,SCT,0.00,WeatherDisplay:10.37,2013-01-02 02:15:00,
2013-01-02 02:25:00,34.9,33.1,30.10,SE,126,1.0,1.0,93,0.00,CLR,SCT,0.00,WeatherDisplay:10.37,2013-01-02 02:25:00,
2013-01-02 02:35:00,34.5,32.7,30.11,SE,138,0.0,1.0,93,0.00,CLR,SCT,0.00,WeatherDisplay:10.37,2013-01-02 02:35:00,
2013-01-02 02:40:00,34.5,32.7,30.11,South,187,0.0,2.0,93,0.00,CLR,SCT,0.00,WeatherDisplay:10.37,2013-01-02 02:40:00,
2013-01-02 02:45:00,34.6,32.8,30.12,WNW,283,2.0,2.0,93,0.00,CLR,SCT,0.00,WeatherDisplay:10.37,2013-01-02 02:45:00,
2013-01-02 02:50:00,34.7,32.9,30.11,NW,308,0.0,2.0,93,0.00,CLR,SCT,0.00,WeatherDisplay:10.37,2013-01-02 02:50:00,
2013-01-02 03:00:00,34.9,33.3,30.11,WNW,295,1.0,2.0,94,0.00,CLR,SCT,0.00,WeatherDisplay:10.37,2013-01-02 03:00:00,
2013-01-02 03:05:00,34.9,33.4,30.11,WNW,288,1.0,2.0,94,0.00,CLR,SCT,0.00,WeatherDisplay:10.37,2013-01-02 03:05:00,
2013-01-02 03:11:00,35.2,33.7,30.12,West,281,1.0,2.0,94,0.00,CLR,SCT,0.00,WeatherDisplay:10.37,2013-01-02 03:11:00,
2013-01-02 03:16:00,35.2,33.7,30.12,WNW,282,0.0,0.0,94,0.00,CLR,SCT,0.00,WeatherDisplay:10.37,2013-01-02 03:16:00,
2013-01-02 03:25:00,35.2,33.7,30.13,ESE,123,1.0,2.0,94,0.00,CLR,SCT,0.00,WeatherDisplay:10.37,2013-01-02 03:25:00,
2013-01-02 03:35:00,35.2,33.7,30.12,ESE,114,0.0,0.0,94,0.00,CLR,SCT,0.00,WeatherDisplay:10.37,2013-01-02 03:35:00,
2013-01-02 03:45:00,34.9,33.3,30.12,SE,129,0.0,0.0,94,0.00,CLR,SCT,0.00,WeatherDisplay:10.37,2013-01-02 03:45:00,
2013-01-02 03:55:00,34.9,33.3,30.13,WNW,292,0.0,2.0,94,0.00,CLR,SCT,0.00,WeatherDisplay:10.37,2013-01-02 03:55:00,
2013-01-02 04:00:00,35.1,33.5,30.13,WNW,286,2.0,2.0,94,0.00,CLR,SCT,0.00,WeatherDisplay:10.37,2013-01-02 04:00:00,
2013-01-02 04:05:00,35.2,33.7,30.14,WNW,289,1.0,2.0,94,0.00,CLR,SCT,0.00,WeatherDisplay:10.37,2013-01-02 04:05:00,
2013-01-02 04:10:00,35.4,33.9,30.13,WNW,300,2.0,3.0,94,0.00,CLR,SCT,0.00,WeatherDisplay:10.37,2013-01-02 04:10:00,
2013-01-02 04:20:00,35.4,33.9,30.14,West,281,2.0,2.0,94,0.00,CLR,SCT,0.00,WeatherDisplay:10.37,2013-01-02 04:20:00,
2013-01-02 04:25:00,35.4,33.9,30.14,West,280,0.0,2.0,94,0.00,CLR,SCT,0.00,WeatherDisplay:10.37,2013-01-02 04:25:00,
2013-01-02 04:30:00,35.4,33.9,30.14,West,280,0.0,0.0,94,0.00,CLR,SCT,0.00,WeatherDisplay:10.37,2013-01-02 04:30:00,
2013-01-02 04:40:00,35.2,33.7,30.15,South,176,1.0,1.0,94,0.00,CLR,SCT,0.00,WeatherDisplay:10.37,2013-01-02 04:40:00,
2013-01-02 04:45:00,34.6,33.1,30.15,SSE,158,1.0,2.0,94,0.00,CLR,SCT,0.00,WeatherDisplay:10.37,2013-01-02 04:45:00,
2013-01-02 04:50:00,34.5,33.0,30.15,SSE,158,0.0,0.0,94,0.00,CLR,SCT,0.00,WeatherDisplay:10.37,2013-01-02 04:50:00,
2013-01-02 04:55:00,34.3,32.8,30.15,SSE,158,0.0,0.0,94,0.00,CLR,SCT,0.00,WeatherDisplay:10.37,2013-01-02 04:55:00,
2013-01-02 05:00:00,34.1,32.5,30.15,SSW,208,0.0,1.0,94,0.00,CLR,SCT,0.00,WeatherDisplay:10.37,2013-01-02 05:00:00,
2013-01-02 05:05:00,34.0,32.4,30.15,West,275,1.0,1.0,94,0.00,CLR,SCT,0.00,WeatherDisplay:10.37,2013-01-02 05:05:00,
2013-01-02 05:10:00,34.2,32.6,30.16,WNW,294,1.0,2.0,94,0.00,CLR,SCT,0.00,WeatherDisplay:10.37,2013-01-02 05:10:00,
2013-01-02 05:15:00,34.3,32.7,30.16,WNW,296,0.0,0.0,94,0.00,CLR,SCT,0.00,WeatherDisplay:10.37,2013-01-02 05:15:00,
2013-01-02 05:20:00,34.4,32.9,30.16,West,278,0.0,0.0,94,0.00,CLR,SCT,0.00,WeatherDisplay:10.37,2013-01-02 05:20:00,
2013-01-02 05:25:00,34.4,32.9,30.16,WSW,250,0.0,0.0,94,0.00,CLR,SCT,0.00,WeatherDisplay:10.37,2013-01-02 05:25:00,
2013-01-02 05:30:00,34.3,32.8,30.17,SW,228,0.0,0.0,94,0.00,CLR,SCT,0.00,WeatherDisplay:10.37,2013-01-02 05:30:00,
2013-01-02 05:40:00,34.0,32.4,30.17,SW,225,0.0,0.0,94,0.00,CLR,SCT,0.00,WeatherDisplay:10.37,2013-01-02 05:40:00,
2013-01-02 05:50:00,34.2,32.6,30.18,SW,225,0.0,0.0,94,0.00,CLR,SCT,0.00,WeatherDisplay:10.37,2013-01-02 05:50:00,
2013-01-02 05:55:00,34.2,32.6,30.18,SW,225,0.0,0.0,94,0.00,CLR,SCT,0.00,WeatherDisplay:10.37,2013-01-02 05:55:00,
2013-01-02 06:00:00,34.3,32.8,30.18,SW,225,0.0,0.0,94,0.00,CLR,SCT,0.00,WeatherDisplay:10.37,2013-01-02 06:00:00,
2013-01-02 06:10:00,34.7,33.2,30.18,SW,225,0.0,0.0,94,0.00,CLR,SCT,0.00,WeatherDisplay:10.37,2013-01-02 06:10:00,
2013-01-02 06:20:00,34.9,33.3,30.18,SW,227,0.0,0.0,94,0.00,CLR,SCT,0.00,WeatherDisplay:10.37,2013-01-02 06:20:00,
2013-01-02 06:25:00,35.2,33.7,30.18,SSW,211,0.0,0.0,94,0.00,CLR,SCT,0.00,WeatherDisplay:10.37,2013-01-02 06:25:00,
2013-01-02 06:30:00,35.4,34.1,30.18,SSE,151,0.0,0.0,95,0.00,CLR,SCT,0.00,WeatherDisplay:10.37,2013-01-02 06:30:00,
2013-01-02 06:35:00,35.8,34.5,30.18,SSE,148,0.0,0.0,95,0.00,CLR,SCT,0.00,WeatherDisplay:10.37,2013-01-02 06:35:00,
2013-01-02 06:40:00,36.0,34.7,30.18,WSW,254,1.0,1.0,95,0.00,CLR,SCT,0.00,WeatherDisplay:10.37,2013-01-02 06:40:00,
2013-01-02 06:45:00,36.3,35.0,30.18,WNW,285,0.0,1.0,95,0.00,CLR,SCT,0.00,WeatherDisplay:10.37,2013-01-02 06:45:00,
2013-01-02 06:50:00,36.3,35.0,30.18,WNW,289,0.0,1.0,95,0.00,CLR,SCT,0.00,WeatherDisplay:10.37,2013-01-02 06:50:00,
2013-01-02 06:55:00,36.7,35.4,30.19,WNW,295,2.0,2.0,95,0.00,CLR,SCT,0.00,WeatherDisplay:10.37,2013-01-02 06:55:00,
2013-01-02 07:01:00,37.0,35.7,30.19,West,278,1.0,2.0,95,0.00,CLR,SCT,0.00,WeatherDisplay:10.37,2013-01-02 07:01:00,
2013-01-02 07:10:00,37.2,35.9,30.19,West,273,0.0,0.0,95,0.00,CLR,SCT,0.00,WeatherDisplay:10.37,2013-01-02 07:10:00,
2013-01-02 07:15:00,37.2,35.9,30.19,WNW,290,0.0,1.0,95,0.00,CLR,SCT,0.00,WeatherDisplay:10.37,2013-01-02 07:15:00,
2013-01-02 07:25:00,37.6,36.3,30.19,West,272,0.0,2.0,95,0.00,CLR,SCT,0.00,WeatherDisplay:10.37,2013-01-02 07:25:00,
2013-01-02 07:31:00,37.7,36.4,30.20,West,278,1.0,2.0,95,0.00,CLR,SCT,0.00,WeatherDisplay:10.37,2013-01-02 07:31:00,
2013-01-02 07:40:00,38.0,36.7,30.20,WNW,283,1.0,2.0,95,0.00,CLR,SCT,0.00,WeatherDisplay:10.37,2013-01-02 07:40:00,
2013-01-02 07:50:00,38.3,37.0,30.21,WNW,286,0.0,0.0,95,0.00,CLR,SCT,0.00,WeatherDisplay:10.37,2013-01-02 07:50:00,
2013-01-02 07:55:00,38.5,37.2,30.21,WNW,292,0.0,2.0,95,0.00,CLR,SCT,0.00,WeatherDisplay:10.37,2013-01-02 07:55:00,
2013-01-02 08:00:00,38.5,37.2,30.20,WNW,295,0.0,1.0,95,0.00,CLR,SCT,0.00,WeatherDisplay:10.37,2013-01-02 08:00:00,
2013-01-02 08:05:00,38.5,37.2,30.20,WNW,293,1.0,1.0,95,0.00,CLR,SCT,0.00,WeatherDisplay:10.37,2013-01-02 08:05:00,
2013-01-02 08:10:00,38.8,37.5,30.21,WNW,292,1.0,1.0,95,0.00,CLR,SCT,0.00,WeatherDisplay:10.37,2013-01-02 08:10:00,
2013-01-02 08:15:00,38.8,37.5,30.20,WNW,297,0.0,1.0,95,0.00,CLR,SCT,0.00,WeatherDisplay:10.37,2013-01-02 08:15:00,
2013-01-02 08:20:00,39.0,37.7,30.20,WNW,297,0.0,0.0,95,0.00,CLR,SCT,0.00,WeatherDisplay:10.37,2013-01-02 08:20:00,
2013-01-02 08:25:00,39.0,37.7,30.21,WNW,296,0.0,0.0,95,0.00,CLR,SCT,0.00,WeatherDisplay:10.37,2013-01-02 08:25:00,
2013-01-02 08:30:00,39.0,37.7,30.22,WNW,295,0.0,0.0,95,0.00,CLR,SCT,0.00,WeatherDisplay:10.37,2013-01-02 08:30:00,
2013-01-02 08:35:00,39.4,38.1,30.22,WNW,289,1.0,1.0,95,0.00,CLR,SCT,0.00,WeatherDisplay:10.37,2013-01-02 08:35:00,
2013-01-02 08:40:00,39.4,38.1,30.22,WNW,291,0.0,2.0,95,0.00,CLR,SCT,0.00,WeatherDisplay:10.37,2013-01-02 08:40:00,
2013-01-02 08:45:00,39.6,38.2,30.22,WNW,283,0.0,2.0,95,0.00,CLR,SCT,0.00,WeatherDisplay:10.37,2013-01-02 08:45:00,
2013-01-02 08:50:00,39.7,38.4,30.22,WNW,287,1.0,2.0,95,0.00,CLR,SCT,0.00,WeatherDisplay:10.37,2013-01-02 08:50:00,
2013-01-02 09:00:00,39.9,38.6,30.22,WNW,294,1.0,2.0,95,0.00,CLR,SCT,0.00,WeatherDisplay:10.37,2013-01-02 09:00:00,
2013-01-02 09:10:00,40.3,39.0,30.22,WNW,297,1.0,2.0,95,0.00,CLR,SCT,0.00,WeatherDisplay:10.37,2013-01-02 09:10:00,
2013-01-02 09:20:00,40.6,39.3,30.23,WNW,298,1.0,2.0,95,0.00,CLR,SCT,0.00,WeatherDisplay:10.37,2013-01-02 09:20:00,
2013-01-02 09:30:00,40.7,39.3,30.24,WNW,296,0.0,1.0,95,0.00,CLR,SCT,0.00,WeatherDisplay:10.37,2013-01-02 09:30:00,
2013-01-02 09:40:00,40.9,39.3,30.23,WNW,297,1.0,3.0,94,0.00,CLR,SCT,0.00,WeatherDisplay:10.37,2013-01-02 09:40:00,
2013-01-02 09:50:00,41.5,40.2,30.23,WNW,284,0.0,0.0,95,0.00,CLR,SCT,0.00,WeatherDisplay:10.37,2013-01-02 09:50:00,
2013-01-02 09:55:00,41.5,39.9,30.24,WNW,297,2.0,3.0,94,0.00,CLR,SCT,0.00,WeatherDisplay:10.37,2013-01-02 09:55:00,
2013-01-02 10:00:00,42.6,41.0,30.24,WNW,294,3.0,3.0,94,0.00,CLR,SCT,0.00,WeatherDisplay:10.37,2013-01-02 10:00:00,
2013-01-02 10:05:00,42.6,41.0,30.24,WNW,294,3.0,4.0,94,0.00,CLR,SCT,0.00,WeatherDisplay:10.37,2013-01-02 10:05:00,
2013-01-02 10:10:00,42.8,40.9,30.24,NW,306,1.0,3.0,93,0.00,CLR,SCT,0.00,WeatherDisplay:10.37,2013-01-02 10:10:00,
2013-01-02 10:15:00,43.0,41.1,30.24,WNW,297,1.0,2.0,93,0.00,CLR,SCT,0.00,WeatherDisplay:10.37,2013-01-02 10:15:00,
2013-01-02 10:20:00,43.0,41.1,30.24,WNW,292,2.0,2.0,93,0.00,CLR,SCT,0.00,WeatherDisplay:10.37,2013-01-02 10:20:00,
2013-01-02 10:25:00,43.0,40.8,30.24,NW,307,1.0,1.0,92,0.00,CLR,SCT,0.00,WeatherDisplay:10.37,2013-01-02 10:25:00,
2013-01-02 10:30:00,43.0,40.8,30.24,NW,311,2.0,3.0,92,0.00,CLR,SCT,0.00,WeatherDisplay:10.37,2013-01-02 10:30:00,
2013-01-02 10:35:00,43.0,40.8,30.24,NW,314,2.0,3.0,92,0.00,CLR,SCT,0.00,WeatherDisplay:10.37,2013-01-02 10:35:00,
2013-01-02 10:40:00,43.3,41.1,30.24,NW,310,0.0,2.0,92,0.00,CLR,SCT,0.00,WeatherDisplay:10.37,2013-01-02 10:40:00,
2013-01-02 10:45:00,44.2,41.8,30.24,WNW,289,1.0,2.0,91,0.00,CLR,SCT,0.00,WeatherDisplay:10.37,2013-01-02 10:45:00,
2013-01-02 10:50:00,44.2,41.7,30.24,WNW,286,1.0,2.0,91,0.00,CLR,SCT,0.00,WeatherDisplay:10.37,2013-01-02 10:50:00,
2013-01-02 11:00:00,44.4,41.7,30.24,WNW,288,2.0,4.0,90,0.00,CLR,SCT,0.00,WeatherDisplay:10.37,2013-01-02 11:00:00,
2013-01-02 11:10:00,44.8,41.7,30.25,WNW,296,2.0,3.0,89,0.00,CLR,SCT,0.00,WeatherDisplay:10.37,2013-01-02 11:10:00,
2013-01-02 11:20:00,45.0,41.9,30.25,West,281,2.0,3.0,89,0.00,CLR,SCT,0.00,WeatherDisplay:10.37,2013-01-02 11:20:00,
2013-01-02 11:25:00,45.0,41.9,30.25,WNW,290,1.0,2.0,89,0.00,CLR,SCT,0.00,WeatherDisplay:10.37,2013-01-02 11:25:00,
2013-01-02 11:30:00,45.0,41.9,30.25,NW,305,2.0,2.0,89,0.00,CLR,SCT,0.00,WeatherDisplay:10.37,2013-01-02 11:30:00,
2013-01-02 11:40:00,45.2,42.2,30.24,WNW,290,2.0,3.0,89,0.00,CLR,SCT,0.00,WeatherDisplay:10.37,2013-01-02 11:40:00,
2013-01-02 11:50:00,45.7,42.6,30.24,WNW,302,0.0,2.0,89,0.00,CLR,SCT,0.00,WeatherDisplay:10.37,2013-01-02 11:50:00,
2013-01-02 11:55:00,45.7,42.6,30.23,NW,305,0.0,2.0,89,0.00,CLR,SCT,0.00,WeatherDisplay:10.37,2013-01-02 11:55:00,
2013-01-02 12:00:00,46.0,42.6,30.23,NW,324,2.0,2.0,88,0.00,CLR,SCT,0.00,WeatherDisplay:10.37,2013-01-02 12:00:00,
2013-01-02 12:10:00,46.0,42.7,30.24,NW,306,3.0,3.0,88,0.00,CLR,SCT,0.00,WeatherDisplay:10.37,2013-01-02 12:10:00,
2013-01-02 12:15:00,46.2,42.8,30.24,WNW,302,5.0,5.0,88,0.00,CLR,SCT,0.00,WeatherDisplay:10.37,2013-01-02 12:15:00,
2013-01-02 12:20:00,46.2,43.2,30.23,WNW,298,3.0,3.0,89,0.00,CLR,SCT,0.00,WeatherDisplay:10.37,2013-01-02 12:20:00,
2013-01-02 12:30:00,46.3,43.2,30.23,NNE,20,2.0,3.0,89,0.00,CLR,SCT,0.00,WeatherDisplay:10.37,2013-01-02 12:30:00,
2013-01-02 12:35:00,46.6,43.5,30.23,NNW,342,2.0,3.0,89,0.00,CLR,SCT,0.00,WeatherDisplay:10.37,2013-01-02 12:35:00,
2013-01-02 12:40:00,46.6,43.5,30.23,NNW,338,0.0,2.0,89,0.00,CLR,SCT,0.00,WeatherDisplay:10.37,2013-01-02 12:40:00,
2013-01-02 12:45:00,46.6,43.5,30.23,NNW,343,0.0,2.0,89,0.00,CLR,SCT,0.00,WeatherDisplay:10.37,2013-01-02 12:45:00,
2013-01-02 12:50:00,46.7,43.7,30.24,NW,316,0.0,2.0,89,0.00,CLR,SCT,0.00,WeatherDisplay:10.37,2013-01-02 12:50:00,
2013-01-02 13:00:00,46.6,43.5,30.24,NNE,29,0.0,0.0,89,0.00,CLR,SCT,0.00,WeatherDisplay:10.37,2013-01-02 13:00:00,
2013-01-02 13:10:00,46.6,43.5,30.24,NW,318,2.0,6.0,89,0.00,CLR,SCT,0.00,WeatherDisplay:10.37,2013-01-02 13:10:00,
2013-01-02 13:15:00,46.6,43.5,30.24,NW,325,1.0,3.0,89,0.00,CLR,SCT,0.00,WeatherDisplay:10.37,2013-01-02 13:15:00,
2013-01-02 13:25:00,46.8,44.0,30.23,WNW,301,1.0,2.0,90,0.00,CLR,SCT,0.00,WeatherDisplay:10.37,2013-01-02 13:25:00,
2013-01-02 13:30:00,46.8,44.0,30.23,NNW,331,1.0,2.0,90,0.00,CLR,SCT,0.00,WeatherDisplay:10.37,2013-01-02 13:30:00,
2013-01-02 13:40:00,46.7,44.2,30.23,NW,304,3.0,4.0,91,0.00,CLR,SCT,0.00,WeatherDisplay:10.37,2013-01-02 13:40:00,
2013-01-02 13:50:00,46.6,44.1,30.23,West,280,3.0,4.0,91,0.00,CLR,SCT,0.00,WeatherDisplay:10.37,2013-01-02 13:50:00,
2013-01-02 13:55:00,46.6,44.1,30.22,NNW,348,0.0,3.0,91,0.00,CLR,SCT,0.00,WeatherDisplay:10.37,2013-01-02 13:55:00,
2013-01-02 14:00:00,46.6,44.1,30.22,NNE,21,0.0,2.0,91,0.00,CLR,SCT,0.00,WeatherDisplay:10.37,2013-01-02 14:00:00,
2013-01-02 14:05:00,46.6,44.1,30.22,NW,319,1.0,3.0,91,0.00,CLR,SCT,0.00,WeatherDisplay:10.37,2013-01-02 14:05:00,
2013-01-02 14:15:00,46.2,43.7,30.23,WNW,292,1.0,2.0,91,0.00,CLR,SCT,0.00,WeatherDisplay:10.37,2013-01-02 14:15:00,
2013-01-02 14:20:00,46.2,44.0,30.23,NW,313,1.0,2.0,92,0.00,CLR,SCT,0.00,WeatherDisplay:10.37,2013-01-02 14:20:00,
2013-01-02 14:25:00,46.2,44.0,30.23,NW,322,1.0,3.0,92,0.00,CLR,SCT,0.00,WeatherDisplay:10.37,2013-01-02 14:25:00,
2013-01-02 14:35:00,46.4,44.2,30.23,West,280,0.0,0.0,92,0.00,CLR,SCT,0.00,WeatherDisplay:10.37,2013-01-02 14:35:00,
2013-01-02 14:40:00,46.5,44.3,30.23,WNW,285,0.0,2.0,92,0.00,CLR,SCT,0.00,WeatherDisplay:10.37,2013-01-02 14:40:00,
2013-01-02 14:45:00,46.6,44.4,30.23,NW,316,0.0,2.0,92,0.00,CLR,SCT,0.00,WeatherDisplay:10.37,2013-01-02 14:45:00,
2013-01-02 14:50:00,46.6,44.4,30.23,NNW,329,0.0,2.0,92,0.00,CLR,SCT,0.00,WeatherDisplay:10.37,2013-01-02 14:50:00,
2013-01-02 15:00:00,46.7,44.8,30.23,NE,55,1.0,2.0,93,0.00,CLR,SCT,0.00,WeatherDisplay:10.37,2013-01-02 15:00:00,
2013-01-02 15:10:00,46.8,44.8,30.23,NNW,330,1.0,3.0,93,0.00,CLR,SCT,0.00,WeatherDisplay:10.37,2013-01-02 15:10:00,
2013-01-02 15:15:00,46.8,44.8,30.22,NW,313,2.0,3.0,93,0.00,CLR,SCT,0.00,WeatherDisplay:10.37,2013-01-02 15:15:00,
2013-01-02 15:20:00,46.8,44.8,30.22,WNW,303,1.0,2.0,93,0.00,CLR,SCT,0.00,WeatherDisplay:10.37,2013-01-02 15:20:00,
2013-01-02 15:31:00,47.0,45.1,30.22,WNW,288,2.0,3.0,93,0.00,CLR,SCT,0.00,WeatherDisplay:10.37,2013-01-02 15:31:00,
2013-01-02 15:40:00,47.1,45.2,30.23,NW,310,0.0,1.0,93,0.00,CLR,SCT,0.00,WeatherDisplay:10.37,2013-01-02 15:40:00,
2013-01-02 15:50:00,47.1,45.2,30.23,North,11,0.0,1.0,93,0.00,CLR,SCT,0.00,WeatherDisplay:10.37,2013-01-02 15:50:00,
2013-01-02 15:55:00,47.3,45.4,30.22,NW,323,0.0,0.0,93,0.00,CLR,SCT,0.00,WeatherDisplay:10.37,2013-01-02 15:55:00,
2013-01-02 16:00:00,47.3,45.4,30.23,NW,307,2.0,2.0,93,0.00,CLR,SCT,0.00,WeatherDisplay:10.37,2013-01-02 16:00:00,
2013-01-02 16:05:00,47.5,45.6,30.22,NW,310,1.0,2.0,93,0.00,CLR,SCT,0.00,WeatherDisplay:10.37,2013-01-02 16:05:00,
2013-01-02 16:10:00,47.5,45.6,30.22,NW,312,0.0,2.0,93,0.00,CLR,SCT,0.00,WeatherDisplay:10.37,2013-01-02 16:10:00,
2013-01-02 16:15:00,47.8,45.9,30.22,WNW,300,3.0,5.0,93,0.00,CLR,SCT,0.00,WeatherDisplay:10.37,2013-01-02 16:15:00,
2013-01-02 16:20:00,47.8,46.2,30.23,WNW,291,2.0,5.0,94,0.00,CLR,SCT,0.00,WeatherDisplay:10.37,2013-01-02 16:20:00,
2013-01-02 16:25:00,48.0,46.4,30.22,WNW,293,2.0,2.0,94,0.00,CLR,SCT,0.00,WeatherDisplay:10.37,2013-01-02 16:25:00,
2013-01-02 16:30:00,48.0,46.4,30.22,NW,321,5.0,7.0,94,0.00,CLR,SCT,0.00,WeatherDisplay:10.37,2013-01-02 16:30:00,
2013-01-02 16:40:00,48.0,46.4,30.22,West,276,2.0,4.0,94,0.00,CLR,SCT,0.00,WeatherDisplay:10.37,2013-01-02 16:40:00,
2013-01-02 16:45:00,48.0,46.4,30.22,WNW,287,3.0,5.0,94,0.00,CLR,SCT,0.00,WeatherDisplay:10.37,2013-01-02 16:45:00,
2013-01-02 16:50:00,48.2,46.6,30.22,WSW,238,2.0,5.0,94,0.00,CLR,SCT,0.00,WeatherDisplay:10.37,2013-01-02 16:50:00,
2013-01-02 17:00:00,48.4,46.7,30.21,NW,304,2.0,5.0,94,0.00,CLR,SCT,0.00,WeatherDisplay:10.37,2013-01-02 17:00:00,
2013-01-02 17:10:00,48.6,46.9,30.21,WNW,295,2.0,6.0,94,0.00,CLR,SCT,0.00,WeatherDisplay:10.37,2013-01-02 17:10:00,
2013-01-02 17:20:00,48.7,47.1,30.22,WNW,302,3.0,4.0,94,0.00,CLR,SCT,0.00,WeatherDisplay:10.37,2013-01-02 17:20:00,
2013-01-02 17:30:00,48.8,47.2,30.22,NW,305,2.0,3.0,94,0.00,CLR,SCT,0.00,WeatherDisplay:10.37,2013-01-02 17:30:00,
2013-01-02 17:40:00,48.9,47.3,30.22,WNW,286,3.0,5.0,94,0.00,CLR,SCT,0.00,WeatherDisplay:10.37,2013-01-02 17:40:00,
2013-01-02 17:50:00,49.3,47.6,30.22,WNW,301,5.0,6.0,94,0.00,CLR,SCT,0.00,WeatherDisplay:10.37,2013-01-02 17:50:00,
2013-01-02 17:55:00,49.3,47.6,30.23,WNW,296,2.0,6.0,94,0.00,CLR,SCT,0.00,WeatherDisplay:10.37,2013-01-02 17:55:00,
2013-01-02 18:00:00,49.3,47.6,30.22,WNW,295,2.0,4.0,94,0.00,CLR,SCT,0.00,WeatherDisplay:10.37,2013-01-02 18:00:00,
2013-01-02 18:05:00,49.3,47.6,30.23,NW,309,3.0,4.0,94,0.00,CLR,SCT,0.00,WeatherDisplay:10.37,2013-01-02 18:05:00,
2013-01-02 18:10:00,49.6,48.0,30.23,WNW,302,3.0,4.0,94,0.00,CLR,SCT,0.00,WeatherDisplay:10.37,2013-01-02 18:10:00,
2013-01-02 18:15:00,49.6,48.0,30.22,WNW,283,6.0,6.0,94,0.00,CLR,SCT,0.00,WeatherDisplay:10.37,2013-01-02 18:15:00,
2013-01-02 18:20:00,49.6,48.0,30.22,WNW,291,5.0,7.0,94,0.00,CLR,SCT,0.00,WeatherDisplay:10.37,2013-01-02 18:20:00,
2013-01-02 18:25:00,49.8,48.2,30.22,WNW,298,3.0,7.0,94,0.00,CLR,SCT,0.00,WeatherDisplay:10.37,2013-01-02 18:25:00,
2013-01-02 18:35:00,49.8,48.2,30.23,NW,308,1.0,5.0,94,0.00,CLR,SCT,0.00,WeatherDisplay:10.37,2013-01-02 18:35:00,
2013-01-02 18:45:00,49.8,48.2,30.23,West,279,9.0,9.0,94,0.00,CLR,SCT,0.00,WeatherDisplay:10.37,2013-01-02 18:45:00,
2013-01-02 18:50:00,49.8,48.2,30.23,WNW,291,1.0,7.0,94,0.00,CLR,SCT,0.00,WeatherDisplay:10.37,2013-01-02 18:50:00,
2013-01-02 19:00:00,50.1,48.8,30.24,NW,314,2.0,2.0,95,0.00,CLR,SCT,0.00,WeatherDisplay:10.37,2013-01-02 19:00:00,
2013-01-02 19:05:00,50.2,48.8,30.24,NW,306,2.0,5.0,95,0.00,CLR,SCT,0.00,WeatherDisplay:10.37,2013-01-02 19:05:00,
2013-01-02 19:10:00,50.2,48.8,30.24,NW,304,3.0,6.0,95,0.00,CLR,SCT,0.00,WeatherDisplay:10.37,2013-01-02 19:10:00,
2013-01-02 19:15:00,50.2,48.8,30.24,NW,309,2.0,6.0,95,0.00,CLR,SCT,0.00,WeatherDisplay:10.37,2013-01-02 19:15:00,
2013-01-02 19:25:00,50.2,48.8,30.25,WNW,303,5.0,7.0,95,0.00,CLR,SCT,0.00,WeatherDisplay:10.37,2013-01-02 19:25:00,
2013-01-02 19:31:00,50.4,49.0,30.25,NW,305,3.0,5.0,95,0.00,CLR,SCT,0.00,WeatherDisplay:10.37,2013-01-02 19:31:00,
2013-01-02 19:40:00,50.4,49.1,30.25,NW,321,2.0,4.0,95,0.00,CLR,SCT,0.00,WeatherDisplay:10.37,2013-01-02 19:40:00,
2013-01-02 19:50:00,50.5,49.2,30.25,WNW,296,3.0,4.0,95,0.00,CLR,SCT,0.00,WeatherDisplay:10.37,2013-01-02 19:50:00,
2013-01-02 19:55:00,50.5,49.2,30.25,NW,320,2.0,4.0,95,0.00,CLR,SCT,0.00,WeatherDisplay:10.37,2013-01-02 19:55:00,
2013-01-02 20:00:00,50.5,49.2,30.25,NNE,15,2.0,4.0,95,0.00,CLR,SCT,0.00,WeatherDisplay:10.37,2013-01-02 20:00:00,
2013-01-02 20:05:00,50.5,49.2,30.25,NE,37,1.0,2.0,95,0.00,CLR,SCT,0.00,WeatherDisplay:10.37,2013-01-02 20:05:00,
2013-01-02 20:10:00,50.5,49.2,30.25,NW,309,3.0,4.0,95,0.00,CLR,SCT,0.00,WeatherDisplay:10.37,2013-01-02 20:10:00,
2013-01-02 20:20:00,50.5,49.2,30.25,West,281,2.0,3.0,95,0.00,CLR,SCT,0.00,WeatherDisplay:10.37,2013-01-02 20:20:00,
2013-01-02 20:25:00,50.5,49.2,30.25,WNW,302,1.0,3.0,95,0.00,CLR,SCT,0.00,WeatherDisplay:10.37,2013-01-02 20:25:00,
2013-01-02 20:30:00,50.5,48.9,30.26,NW,318,6.0,6.0,94,0.00,CLR,SCT,0.00,WeatherDisplay:10.37,2013-01-02 20:30:00,
2013-01-02 20:35:00,50.7,49.0,30.26,NW,316,3.0,4.0,94,0.00,CLR,SCT,0.00,WeatherDisplay:10.37,2013-01-02 20:35:00,
2013-01-02 20:45:00,50.7,49.1,30.26,WNW,290,2.0,3.0,94,0.00,CLR,SCT,0.00,WeatherDisplay:10.37,2013-01-02 20:45:00,
2013-01-02 20:50:00,50.7,49.1,30.26,NW,315,0.0,2.0,94,0.00,CLR,SCT,0.00,WeatherDisplay:10.37,2013-01-02 20:50:00,
2013-01-02 21:00:00,50.7,49.1,30.26,NW,306,2.0,2.0,94,0.00,CLR,SCT,0.00,WeatherDisplay:10.37,2013-01-02 21:00:00,
2013-01-02 21:05:00,50.7,49.1,30.27,WNW,300,1.0,3.0,94,0.00,CLR,SCT,0.00,WeatherDisplay:10.37,2013-01-02 21:05:00,
2013-01-02 21:11:00,50.7,49.1,30.27,NW,318,2.0,3.0,94,0.00,CLR,SCT,0.00,WeatherDisplay:10.37,2013-01-02 21:11:00,
2013-01-02 21:20:00,50.7,49.1,30.28,NW,326,0.0,3.0,94,0.00,CLR,SCT,0.00,WeatherDisplay:10.37,2013-01-02 21:20:00,
2013-01-02 21:30:00,50.7,49.1,30.28,WNW,299,0.0,2.0,94,0.00,CLR,SCT,0.00,WeatherDisplay:10.37,2013-01-02 21:30:00,
2013-01-02 21:40:00,50.7,49.1,30.29,NW,314,2.0,6.0,94,0.00,CLR,SCT,0.00,WeatherDisplay:10.37,2013-01-02 21:40:00,
2013-01-02 21:50:00,50.9,49.2,30.29,NW,313,0.0,2.0,94,0.00,CLR,SCT,0.00,WeatherDisplay:10.37,2013-01-02 21:50:00,
2013-01-02 22:00:00,50.9,49.2,30.29,West,280,2.0,2.0,94,0.00,CLR,SCT,0.00,WeatherDisplay:10.37,2013-01-02 22:00:00,
2013-01-02 22:05:00,50.9,48.9,30.28,WNW,282,2.0,3.0,93,0.00,CLR,SCT,0.00,WeatherDisplay:10.37,2013-01-02 22:05:00,
2013-01-02 22:10:00,50.9,48.9,30.28,WNW,300,0.0,3.0,93,0.00,CLR,SCT,0.00,WeatherDisplay:10.37,2013-01-02 22:10:00,
2013-01-02 22:15:00,50.9,48.9,30.28,WNW,290,1.0,3.0,93,0.00,CLR,SCT,0.00,WeatherDisplay:10.37,2013-01-02 22:15:00,
2013-01-02 22:20:00,50.7,48.8,30.28,WNW,295,2.0,5.0,93,0.00,CLR,SCT,0.00,WeatherDisplay:10.37,2013-01-02 22:20:00,
2013-01-02 22:25:00,50.7,48.8,30.28,NW,318,0.0,0.0,93,0.00,CLR,SCT,0.00,WeatherDisplay:10.37,2013-01-02 22:25:00,
2013-01-02 22:35:00,50.7,48.8,30.29,NW,314,0.0,3.0,93,0.00,CLR,SCT,0.00,WeatherDisplay:10.37,2013-01-02 22:35:00,
2013-01-02 22:40:00,50.5,48.6,30.29,NW,308,2.0,3.0,93,0.00,CLR,SCT,0.00,WeatherDisplay:10.37,2013-01-02 22:40:00,
2013-01-02 22:45:00,50.4,48.4,30.30,WNW,284,1.0,3.0,93,0.00,CLR,SCT,0.00,WeatherDisplay:10.37,2013-01-02 22:45:00,
2013-01-02 22:50:00,50.3,48.3,30.30,WNW,302,2.0,3.0,93,0.00,CLR,SCT,0.00,WeatherDisplay:10.37,2013-01-02 22:50:00,
2013-01-02 23:00:00,50.1,48.5,30.30,NW,315,3.0,3.0,94,0.00,CLR,SCT,0.00,WeatherDisplay:10.37,2013-01-02 23:00:00,
2013-01-02 23:05:00,49.8,47.9,30.30,NW,321,2.0,4.0,93,0.00,CLR,SCT,0.00,WeatherDisplay:10.37,2013-01-02 23:05:00,
2013-01-02 23:15:00,49.8,48.2,30.30,WNW,287,1.0,2.0,94,0.00,CLR,SCT,0.00,WeatherDisplay:10.37,2013-01-02 23:15:00,
2013-01-02 23:20:00,49.8,48.2,30.30,WNW,298,2.0,3.0,94,0.00,CLR,SCT,0.00,WeatherDisplay:10.37,2013-01-02 23:20:00,
2013-01-02 23:25:00,49.6,48.0,30.31,WNW,292,1.0,3.0,94,0.00,CLR,SCT,0.00,WeatherDisplay:10.37,2013-01-02 23:25:00,
2013-01-02 23:30:00,49.6,48.0,30.31,WNW,291,0.0,3.0,94,0.00,CLR,SCT,0.00,WeatherDisplay:10.37,2013-01-02 23:30:00,
2013-01-02 23:40:00,49.8,48.2,30.32,NW,310,2.0,3.0,94,0.00,CLR,SCT,0.00,WeatherDisplay:10.37,2013-01-02 23:40:00,
2013-01-02 23:50:00,50.0,48.7,30.32,NW,311,0.0,3.0,95,0.00,CLR,SCT,0.00,WeatherDisplay:10.37,2013-01-02 23:50:00,
2013-01-02 23:55:00,50.2,48.8,30.32,WNW,289,1.0,3.0,95,0.00,CLR,SCT,0.00,WeatherDisplay:10.37,2013-01-02 23:55:00,